KJYG

St James Municipal Airport

St James, Minnesota, USA
METAR KJYG 150315Z AUTO 31004KT 23/22 A2993 RMK AO2 PWINO
Observed Flight Rules
Aug-15 @ 03:15 UTC (20 minutes ago)
Wind
310° at 4 knots
Temperatures Readings
Current 23°C / 73°F
Dewpoint 22°C / 72°F
Humidity 94%
Altimeter 29.93" Hg
Pressure 1014 hPa
Elevation 325
METAR KJYG 150315Z AUTO 31004KT 23/22 A2993 RMK AO2 PWINO
Observed Flight Rules
Aug-15 @ 03:15 UTC
(20 minutes ago)
Wind
310° at 4 knots
Temperature Dewpoint
23°C / 73°F 22°C / 72°F
Humidity Altimeter Pressure
94% 29.93" Hg 1014 hPa